Pagina principale
METAR-TAF:

METAR-TAF

Aeroporti :

Aeroporto di Trieste-Ronchi dei Legionari

Trieste / Ronchi dei Legionari, Italia

latitudine: 45-49N, longitudine: 013-29E, altezza: 12 m

Osservazione

Il bollettino è stato emesso 21 minuti fa, alle 09:50 UTC
Vento 12 kt da est/sud-est
Temperature 11°C
Umidità 35%
Pressione 1016 hPa
Visibilità 10 km o più

METAR: LIPQ 090950Z AUTO 11012KT 9999 SCT100/// 11/M04 Q1016

Ora: 11:11 (10:11 UTC)

Previsione

Il bollettino è stato emesso 5 ore e 11 minuti fa, alle 05:00 UTC
Previsione valida dal 09 alle 06 UTC al 10 alle 06 UTC
Vento 11 kt da est
Visibilità 10 km o più
Nubi sparse ad un'altezza di 6000 ft

TAF: LIPQ 090500Z 0906/1006 08011KT 9999 SCT060

Osservazioni e previsioni meteorologiche di più di 4000 aeroporti (messaggi METAR e TAF).

Le stazioni disponibili sono rappresentate dai dischi gialli e rossi sulla carta.

Puntare il mouse per vedere il nome della stazione.

Clicca sopra per visualizzare le osservazioni e previsioni meteorologiche.

Per cambiare la mappa : fare clic sui pulsanti verdi con una croce nera per ingrandire, il pulsante verde con un trattino per diminuire, o sulla freccia verde per le mappe adiacenti.


METAR-TAF: